Hanseatic — C6KA9 — position and weather

sailwx.info

Track history (hours):
 
Tides and Currents Weather Stations Pressure Air Temp Water Temp Dewpoint Dewpoint Depression Visibility Wind Speed Wind Dir Waves Ship Positions

Hanseatic

Operator: Hapag-Lloyd Container Line

Last reported at 2018-Jun-18 19:00 UTC. Time now 2018-Jun-18 19:11 UTC.
Position N 62°24' E 006°20'.

Length 123 m; draft 4.9 m.

Type: Ship. MMSI: 309577000.

Date/timePositionNaut miles runAvg speedWind from/ knotsBaromVisibWave heightAir tempDewpointWater temp
2018-Jun-18 19:00N 62°24' E 006°20'714.1
2018-Jun-18 18:29N 62°26' E 006°35'713.5
2018-Jun-18 18:00N 62°27' E 006°49'612.6
2018-Jun-18 17:30N 62°21' E 006°56'714.4
2018-Jun-18 17:00N 62°15' E 007°01'714.3
2018-Jun-18 16:30N 62°08' E 006°57'510.0
2018-Jun-18 16:00N 62°07' E 007°08'2 3.5
2018-Jun-18 15:30N 62°06' E 007°11'0 0.1
2018-Jun-18 15:00N 62°06' E 007°11'0 0.1
2018-Jun-18 14:30N 62°06' E 007°11'0 0.0
2018-Jun-18 14:00N 62°06' E 007°11'0 0.0
2018-Jun-18 13:30N 62°06' E 007°11'0 0.0
2018-Jun-18 13:00N 62°06' E 007°11'0 0.0
2018-Jun-18 12:30N 62°06' E 007°11'0 0.0
2018-Jun-18 12:00N 62°06' E 007°11'0 0.0
2018-Jun-18 11:31N 62°06' E 007°11'0 0.0
2018-Jun-18 11:00N 62°06' E 007°11'0 0.1
2018-Jun-18 10:31N 62°06' E 007°11'0 0.2
2018-Jun-18 10:00N 62°06' E 007°11'4 7.8
2018-Jun-18 09:30N 62°05' E 007°03'4 1.0
2018-Jun-18 05:24N 62°07' E 006°55'512.9
2018-Jun-18 05:00N 62°11' E 007°02'713.3
2018-Jun-18 04:30N 62°17' E 007°01'714.0
2018-Jun-18 04:00N 62°24' E 006°55'713.8
2018-Jun-18 03:30N 62°27' E 006°43'814.8
2018-Jun-18 03:00N 62°25' E 006°27'714.8
2018-Jun-18 02:30N 62°23' E 006°12'713.4
2018-Jun-18 02:00N 62°27' E 005°60'4 8.7
2018-Jun-18 01:29N 62°28' E 005°51'510.7
2018-Jun-18 01:00N 62°30' E 005°41'611.0
2018-Jun-18 00:29N 62°31' E 005°29'612.2
2018-Jun-17 23:59N 62°32' E 005°16'511.0
2018-Jun-17 23:30N 62°33' E 005°04'  
Track history (hours):
 
Tides and Currents Weather Stations Pressure Air Temp Water Temp Dewpoint Dewpoint Depression Visibility Wind Speed Wind Dir Waves Ship Positions

Hanseatic

Operator: Hapag-Lloyd Container Line

Last reported at 2018-Jun-18 19:00 UTC. Time now 2018-Jun-18 19:11 UTC.
Position N 62°24' E 006°20'.

Length 123 m; draft 4.9 m.

Type: Ship. MMSI: 309577000.

Date/timePositionNaut miles runAvg speedWind from/ knotsBaromVisibWave heightAir tempDewpointWater temp
2018-Jun-18 19:00N 62°24' E 006°20'714.1
2018-Jun-18 18:29N 62°26' E 006°35'713.5
2018-Jun-18 18:00N 62°27' E 006°49'612.6
2018-Jun-18 17:30N 62°21' E 006°56'714.4
2018-Jun-18 17:00N 62°15' E 007°01'714.3
2018-Jun-18 16:30N 62°08' E 006°57'510.0
2018-Jun-18 16:00N 62°07' E 007°08'2 3.5
2018-Jun-18 15:30N 62°06' E 007°11'0 0.1
2018-Jun-18 15:00N 62°06' E 007°11'0 0.1
2018-Jun-18 14:30N 62°06' E 007°11'0 0.0
2018-Jun-18 14:00N 62°06' E 007°11'0 0.0
2018-Jun-18 13:30N 62°06' E 007°11'0 0.0
2018-Jun-18 13:00N 62°06' E 007°11'0 0.0
2018-Jun-18 12:30N 62°06' E 007°11'0 0.0
2018-Jun-18 12:00N 62°06' E 007°11'0 0.0
2018-Jun-18 11:31N 62°06' E 007°11'0 0.0
2018-Jun-18 11:00N 62°06' E 007°11'0 0.1
2018-Jun-18 10:31N 62°06' E 007°11'0 0.2
2018-Jun-18 10:00N 62°06' E 007°11'4 7.8
2018-Jun-18 09:30N 62°05' E 007°03'4 1.0
2018-Jun-18 05:24N 62°07' E 006°55'512.9
2018-Jun-18 05:00N 62°11' E 007°02'713.3
2018-Jun-18 04:30N 62°17' E 007°01'714.0
2018-Jun-18 04:00N 62°24' E 006°55'713.8
2018-Jun-18 03:30N 62°27' E 006°43'814.8
2018-Jun-18 03:00N 62°25' E 006°27'714.8
2018-Jun-18 02:30N 62°23' E 006°12'713.4
2018-Jun-18 02:00N 62°27' E 005°60'4 8.7
2018-Jun-18 01:29N 62°28' E 005°51'510.7
2018-Jun-18 01:00N 62°30' E 005°41'611.0
2018-Jun-18 00:29N 62°31' E 005°29'612.2
2018-Jun-17 23:59N 62°32' E 005°16'511.0
2018-Jun-17 23:30N 62°33' E 005°04'  

Dump ship's entire track history